sensor_id;sensor_type;location;lat;lon;timestamp;P1;durP1;ratioP1;P2;durP2;ratioP2
33347;SDS011;19707;51.158;17.124;2023-04-03T00:01:01;9.70;;;3.40;;
33347;SDS011;19707;51.158;17.124;2023-04-03T00:04:04;8.10;;;3.00;;
33347;SDS011;19707;51.158;17.124;2023-04-03T00:07:07;11.60;;;3.10;;
33347;SDS011;19707;51.158;17.124;2023-04-03T00:10:09;8.90;;;3.70;;
33347;SDS011;19707;51.158;17.124;2023-04-03T00:13:11;9.00;;;3.20;;
33347;SDS011;19707;51.158;17.124;2023-04-03T00:16:14;8.80;;;3.80;;
33347;SDS011;19707;51.158;17.124;2023-04-03T00:19:16;11.60;;;3.50;;
33347;SDS011;19707;51.158;17.124;2023-04-03T00:22:18;10.50;;;3.10;;
33347;SDS011;19707;51.158;17.124;2023-04-03T00:25:21;15.30;;;3.40;;
33347;SDS011;19707;51.158;17.124;2023-04-03T00:28:24;13.50;;;3.90;;
33347;SDS011;19707;51.158;17.124;2023-04-03T00:31:27;10.70;;;3.30;;
33347;SDS011;19707;51.158;17.124;2023-04-03T00:34:29;10.80;;;3.50;;
33347;SDS011;19707;51.158;17.124;2023-04-03T00:37:32;12.00;;;3.10;;
33347;SDS011;19707;51.158;17.124;2023-04-03T00:40:39;9.30;;;3.30;;
33347;SDS011;19707;51.158;17.124;2023-04-03T00:43:44;10.40;;;3.60;;
33347;SDS011;19707;51.158;17.124;2023-04-03T00:46:47;12.70;;;3.70;;
33347;SDS011;19707;51.158;17.124;2023-04-03T00:49:49;7.20;;;3.60;;
33347;SDS011;19707;51.158;17.124;2023-04-03T00:52:53;8.20;;;3.30;;
33347;SDS011;19707;51.158;17.124;2023-04-03T00:55:56;10.50;;;4.10;;
33347;SDS011;19707;51.158;17.124;2023-04-03T00:58:59;9.00;;;3.30;;
33347;SDS011;19707;51.158;17.124;2023-04-03T01:02:04;12.40;;;3.80;;
33347;SDS011;19707;51.158;17.124;2023-04-03T01:05:06;12.90;;;3.90;;
33347;SDS011;19707;51.158;17.124;2023-04-03T01:08:09;9.10;;;3.10;;
33347;SDS011;19707;51.158;17.124;2023-04-03T01:11:12;11.10;;;3.50;;
33347;SDS011;19707;51.158;17.124;2023-04-03T01:14:14;12.30;;;3.60;;
33347;SDS011;19707;51.158;17.124;2023-04-03T01:17:33;9.80;;;3.10;;
33347;SDS011;19707;51.158;17.124;2023-04-03T01:27:33;11.70;;;3.70;;
33347;SDS011;19707;51.158;17.124;2023-04-03T01:30:36;11.90;;;3.30;;
33347;SDS011;19707;51.158;17.124;2023-04-03T01:33:44;6.40;;;3.00;;
33347;SDS011;19707;51.158;17.124;2023-04-03T01:36:46;9.20;;;3.00;;
33347;SDS011;19707;51.158;17.124;2023-04-03T01:39:48;10.60;;;3.40;;
33347;SDS011;19707;51.158;17.124;2023-04-03T01:42:50;7.70;;;2.80;;
33347;SDS011;19707;51.158;17.124;2023-04-03T01:45:53;13.60;;;3.20;;
33347;SDS011;19707;51.158;17.124;2023-04-03T01:48:56;11.00;;;3.50;;
33347;SDS011;19707;51.158;17.124;2023-04-03T01:51:58;13.90;;;3.30;;
33347;SDS011;19707;51.158;17.124;2023-04-03T01:55:00;13.00;;;4.60;;
33347;SDS011;19707;51.158;17.124;2023-04-03T01:58:02;15.10;;;4.90;;
33347;SDS011;19707;51.158;17.124;2023-04-03T02:01:06;10.10;;;3.60;;
33347;SDS011;19707;51.158;17.124;2023-04-03T02:04:08;7.70;;;3.00;;
33347;SDS011;19707;51.158;17.124;2023-04-03T02:07:10;10.30;;;3.10;;
33347;SDS011;19707;51.158;17.124;2023-04-03T02:10:12;11.50;;;3.50;;
33347;SDS011;19707;51.158;17.124;2023-04-03T02:13:15;11.30;;;3.90;;
33347;SDS011;19707;51.158;17.124;2023-04-03T02:16:18;10.60;;;3.30;;
33347;SDS011;19707;51.158;17.124;2023-04-03T02:19:20;13.20;;;3.20;;
33347;SDS011;19707;51.158;17.124;2023-04-03T02:22:22;12.90;;;3.00;;
33347;SDS011;19707;51.158;17.124;2023-04-03T02:25:24;9.80;;;3.00;;
33347;SDS011;19707;51.158;17.124;2023-04-03T02:28:26;11.50;;;3.30;;
33347;SDS011;19707;51.158;17.124;2023-04-03T02:31:31;8.20;;;2.90;;
33347;SDS011;19707;51.158;17.124;2023-04-03T02:37:35;8.60;;;3.60;;
33347;SDS011;19707;51.158;17.124;2023-04-03T02:40:37;15.40;;;3.40;;
33347;SDS011;19707;51.158;17.124;2023-04-03T02:43:39;10.30;;;3.80;;
33347;SDS011;19707;51.158;17.124;2023-04-03T02:46:42;16.50;;;4.30;;
33347;SDS011;19707;51.158;17.124;2023-04-03T02:49:44;12.90;;;3.50;;
33347;SDS011;19707;51.158;17.124;2023-04-03T02:52:47;13.00;;;4.10;;
33347;SDS011;19707;51.158;17.124;2023-04-03T02:55:49;13.40;;;3.40;;
33347;SDS011;19707;51.158;17.124;2023-04-03T02:58:51;16.10;;;4.30;;
33347;SDS011;19707;51.158;17.124;2023-04-03T03:01:54;14.30;;;5.80;;
33347;SDS011;19707;51.158;17.124;2023-04-03T03:04:57;14.20;;;3.80;;
33347;SDS011;19707;51.158;17.124;2023-04-03T03:07:59;12.20;;;3.90;;
33347;SDS011;19707;51.158;17.124;2023-04-03T03:11:01;13.80;;;4.70;;
33347;SDS011;19707;51.158;17.124;2023-04-03T03:14:04;11.50;;;3.40;;
33347;SDS011;19707;51.158;17.124;2023-04-03T03:17:06;12.50;;;3.70;;
33347;SDS011;19707;51.158;17.124;2023-04-03T03:20:08;12.20;;;3.20;;
33347;SDS011;19707;51.158;17.124;2023-04-03T03:23:11;15.60;;;4.60;;
33347;SDS011;19707;51.158;17.124;2023-04-03T03:26:16;10.10;;;4.20;;
33347;SDS011;19707;51.158;17.124;2023-04-03T03:32:20;10.10;;;4.30;;
33347;SDS011;19707;51.158;17.124;2023-04-03T03:35:22;13.20;;;3.70;;
33347;SDS011;19707;51.158;17.124;2023-04-03T03:38:25;8.20;;;3.40;;
33347;SDS011;19707;51.158;17.124;2023-04-03T03:41:27;14.20;;;3.80;;
33347;SDS011;19707;51.158;17.124;2023-04-03T03:44:30;16.20;;;4.10;;
33347;SDS011;19707;51.158;17.124;2023-04-03T03:47:32;22.10;;;6.40;;
33347;SDS011;19707;51.158;17.124;2023-04-03T03:50:34;10.80;;;4.60;;
33347;SDS011;19707;51.158;17.124;2023-04-03T03:53:36;21.00;;;6.70;;
33347;SDS011;19707;51.158;17.124;2023-04-03T03:56:39;17.20;;;5.90;;
33347;SDS011;19707;51.158;17.124;2023-04-03T03:59:42;13.30;;;4.80;;
33347;SDS011;19707;51.158;17.124;2023-04-03T04:02:45;18.40;;;5.20;;
33347;SDS011;19707;51.158;17.124;2023-04-03T04:05:48;15.00;;;5.00;;
33347;SDS011;19707;51.158;17.124;2023-04-03T04:08:50;15.60;;;5.30;;
33347;SDS011;19707;51.158;17.124;2023-04-03T04:11:53;15.00;;;5.10;;
33347;SDS011;19707;51.158;17.124;2023-04-03T04:14:55;31.10;;;11.80;;
33347;SDS011;19707;51.158;17.124;2023-04-03T04:17:57;27.00;;;11.20;;
33347;SDS011;19707;51.158;17.124;2023-04-03T04:20:59;23.30;;;9.40;;
33347;SDS011;19707;51.158;17.124;2023-04-03T04:24:01;19.20;;;5.60;;
33347;SDS011;19707;51.158;17.124;2023-04-03T04:27:04;10.30;;;5.60;;
33347;SDS011;19707;51.158;17.124;2023-04-03T04:30:06;11.30;;;5.50;;
33347;SDS011;19707;51.158;17.124;2023-04-03T04:33:09;10.90;;;4.80;;
33347;SDS011;19707;51.158;17.124;2023-04-03T04:36:11;16.90;;;5.50;;
33347;SDS011;19707;51.158;17.124;2023-04-03T04:39:13;14.60;;;5.00;;
33347;SDS011;19707;51.158;17.124;2023-04-03T04:42:16;40.00;;;17.60;;
33347;SDS011;19707;51.158;17.124;2023-04-03T04:45:18;16.20;;;6.30;;
33347;SDS011;19707;51.158;17.124;2023-04-03T04:48:20;21.50;;;8.60;;
33347;SDS011;19707;51.158;17.124;2023-04-03T04:51:22;25.10;;;9.90;;
33347;SDS011;19707;51.158;17.124;2023-04-03T04:54:24;23.40;;;7.60;;
33347;SDS011;19707;51.158;17.124;2023-04-03T04:57:26;17.50;;;5.60;;
33347;SDS011;19707;51.158;17.124;2023-04-03T05:00:29;15.90;;;6.90;;
33347;SDS011;19707;51.158;17.124;2023-04-03T05:03:31;27.70;;;7.60;;
33347;SDS011;19707;51.158;17.124;2023-04-03T05:06:33;19.70;;;6.70;;
33347;SDS011;19707;51.158;17.124;2023-04-03T05:09:36;15.10;;;5.00;;
33347;SDS011;19707;51.158;17.124;2023-04-03T05:12:38;18.30;;;4.80;;
33347;SDS011;19707;51.158;17.124;2023-04-03T05:15:41;11.90;;;3.80;;
33347;SDS011;19707;51.158;17.124;2023-04-03T05:18:43;14.00;;;3.80;;
33347;SDS011;19707;51.158;17.124;2023-04-03T05:21:45;12.80;;;3.60;;
33347;SDS011;19707;51.158;17.124;2023-04-03T05:24:48;12.50;;;4.00;;
33347;SDS011;19707;51.158;17.124;2023-04-03T05:27:50;10.00;;;3.60;;
33347;SDS011;19707;51.158;17.124;2023-04-03T05:30:53;12.50;;;3.90;;
33347;SDS011;19707;51.158;17.124;2023-04-03T05:33:57;7.70;;;2.70;;
33347;SDS011;19707;51.158;17.124;2023-04-03T05:37:00;17.10;;;5.50;;
33347;SDS011;19707;51.158;17.124;2023-04-03T05:40:03;11.90;;;4.00;;
33347;SDS011;19707;51.158;17.124;2023-04-03T05:43:06;9.50;;;3.80;;
33347;SDS011;19707;51.158;17.124;2023-04-03T05:46:11;11.20;;;3.20;;
33347;SDS011;19707;51.158;17.124;2023-04-03T05:49:16;11.70;;;3.50;;
33347;SDS011;19707;51.158;17.124;2023-04-03T05:52:22;16.80;;;4.80;;
33347;SDS011;19707;51.158;17.124;2023-04-03T05:55:26;12.00;;;3.10;;
33347;SDS011;19707;51.158;17.124;2023-04-03T05:58:28;11.60;;;3.80;;
33347;SDS011;19707;51.158;17.124;2023-04-03T06:01:30;8.10;;;3.70;;
33347;SDS011;19707;51.158;17.124;2023-04-03T06:04:32;15.90;;;4.00;;
33347;SDS011;19707;51.158;17.124;2023-04-03T06:07:34;14.30;;;4.20;;
33347;SDS011;19707;51.158;17.124;2023-04-03T06:10:37;12.60;;;4.70;;
33347;SDS011;19707;51.158;17.124;2023-04-03T06:13:39;9.30;;;4.00;;
33347;SDS011;19707;51.158;17.124;2023-04-03T06:16:42;16.30;;;6.60;;
33347;SDS011;19707;51.158;17.124;2023-04-03T06:19:47;22.70;;;7.20;;
33347;SDS011;19707;51.158;17.124;2023-04-03T06:22:49;16.40;;;6.40;;
33347;SDS011;19707;51.158;17.124;2023-04-03T06:25:52;20.70;;;7.70;;
33347;SDS011;19707;51.158;17.124;2023-04-03T06:28:55;15.00;;;6.10;;
33347;SDS011;19707;51.158;17.124;2023-04-03T06:31:57;12.00;;;4.80;;
33347;SDS011;19707;51.158;17.124;2023-04-03T06:35:00;9.70;;;4.10;;
33347;SDS011;19707;51.158;17.124;2023-04-03T06:38:02;11.40;;;5.00;;
33347;SDS011;19707;51.158;17.124;2023-04-03T06:41:09;12.10;;;4.30;;
33347;SDS011;19707;51.158;17.124;2023-04-03T06:44:11;7.60;;;3.70;;
33347;SDS011;19707;51.158;17.124;2023-04-03T06:47:15;11.10;;;3.70;;
33347;SDS011;19707;51.158;17.124;2023-04-03T06:50:18;14.30;;;4.60;;
33347;SDS011;19707;51.158;17.124;2023-04-03T06:53:20;11.90;;;6.40;;
33347;SDS011;19707;51.158;17.124;2023-04-03T06:56:23;12.70;;;4.00;;
33347;SDS011;19707;51.158;17.124;2023-04-03T06:59:26;13.90;;;5.00;;
33347;SDS011;19707;51.158;17.124;2023-04-03T07:02:28;15.40;;;6.80;;
33347;SDS011;19707;51.158;17.124;2023-04-03T07:05:30;17.10;;;7.40;;
33347;SDS011;19707;51.158;17.124;2023-04-03T07:08:32;13.50;;;6.00;;
33347;SDS011;19707;51.158;17.124;2023-04-03T07:11:35;12.80;;;4.50;;
33347;SDS011;19707;51.158;17.124;2023-04-03T07:14:37;12.40;;;4.20;;
33347;SDS011;19707;51.158;17.124;2023-04-03T07:17:39;10.40;;;4.80;;
33347;SDS011;19707;51.158;17.124;2023-04-03T07:20:42;12.30;;;4.30;;
33347;SDS011;19707;51.158;17.124;2023-04-03T07:23:45;10.90;;;5.10;;
33347;SDS011;19707;51.158;17.124;2023-04-03T07:26:51;7.60;;;3.90;;
33347;SDS011;19707;51.158;17.124;2023-04-03T07:29:54;8.10;;;3.70;;
33347;SDS011;19707;51.158;17.124;2023-04-03T07:32:57;9.00;;;4.00;;
33347;SDS011;19707;51.158;17.124;2023-04-03T07:36:00;10.00;;;5.20;;
33347;SDS011;19707;51.158;17.124;2023-04-03T07:39:03;9.30;;;4.60;;
33347;SDS011;19707;51.158;17.124;2023-04-03T07:42:05;12.10;;;4.70;;
33347;SDS011;19707;51.158;17.124;2023-04-03T07:45:07;11.50;;;3.80;;
33347;SDS011;19707;51.158;17.124;2023-04-03T07:48:10;5.70;;;3.00;;
33347;SDS011;19707;51.158;17.124;2023-04-03T07:51:12;9.30;;;3.80;;
33347;SDS011;19707;51.158;17.124;2023-04-03T07:54:15;7.00;;;3.10;;
33347;SDS011;19707;51.158;17.124;2023-04-03T07:57:17;9.50;;;3.60;;
33347;SDS011;19707;51.158;17.124;2023-04-03T08:00:19;8.30;;;3.10;;
33347;SDS011;19707;51.158;17.124;2023-04-03T08:03:21;8.30;;;4.00;;
33347;SDS011;19707;51.158;17.124;2023-04-03T08:06:24;11.20;;;3.20;;
33347;SDS011;19707;51.158;17.124;2023-04-03T08:09:26;7.10;;;3.70;;
33347;SDS011;19707;51.158;17.124;2023-04-03T08:12:28;7.80;;;3.10;;
33347;SDS011;19707;51.158;17.124;2023-04-03T08:15:31;9.00;;;4.80;;
33347;SDS011;19707;51.158;17.124;2023-04-03T08:18:34;10.60;;;3.70;;
33347;SDS011;19707;51.158;17.124;2023-04-03T08:21:36;8.20;;;4.40;;
33347;SDS011;19707;51.158;17.124;2023-04-03T08:24:38;7.20;;;3.20;;
33347;SDS011;19707;51.158;17.124;2023-04-03T08:27:40;7.80;;;3.70;;
33347;SDS011;19707;51.158;17.124;2023-04-03T08:30:42;16.80;;;6.20;;
33347;SDS011;19707;51.158;17.124;2023-04-03T08:33:45;8.40;;;3.60;;
33347;SDS011;19707;51.158;17.124;2023-04-03T08:36:48;7.30;;;3.10;;
33347;SDS011;19707;51.158;17.124;2023-04-03T08:39:50;12.10;;;5.10;;
33347;SDS011;19707;51.158;17.124;2023-04-03T08:42:54;9.50;;;4.60;;
33347;SDS011;19707;51.158;17.124;2023-04-03T08:45:58;9.30;;;4.00;;
33347;SDS011;19707;51.158;17.124;2023-04-03T08:49:02;7.30;;;3.50;;
33347;SDS011;19707;51.158;17.124;2023-04-03T08:52:09;6.40;;;3.00;;
33347;SDS011;19707;51.158;17.124;2023-04-03T08:59:03;7.10;;;3.70;;
33347;SDS011;19707;51.158;17.124;2023-04-03T09:05:44;6.10;;;2.90;;
33347;SDS011;19707;51.158;17.124;2023-04-03T09:08:59;7.80;;;3.10;;
33347;SDS011;19707;51.158;17.124;2023-04-03T09:12:26;6.50;;;2.60;;
33347;SDS011;19707;51.158;17.124;2023-04-03T09:15:31;5.60;;;2.10;;
33347;SDS011;19707;51.158;17.124;2023-04-03T09:18:35;3.00;;;1.90;;
33347;SDS011;19707;51.158;17.124;2023-04-03T09:21:41;5.70;;;2.20;;
33347;SDS011;19707;51.158;17.124;2023-04-03T09:24:48;6.00;;;2.40;;
33347;SDS011;19707;51.158;17.124;2023-04-03T09:27:54;4.50;;;1.70;;
33347;SDS011;19707;51.158;17.124;2023-04-03T09:30:57;6.80;;;2.40;;
33347;SDS011;19707;51.158;17.124;2023-04-03T09:34:02;3.00;;;1.80;;
33347;SDS011;19707;51.158;17.124;2023-04-03T09:37:08;6.80;;;3.70;;
33347;SDS011;19707;51.158;17.124;2023-04-03T09:41:13;9.40;;;5.50;;
33347;SDS011;19707;51.158;17.124;2023-04-03T09:44:01;6.60;;;2.70;;
33347;SDS011;19707;51.158;17.124;2023-04-03T09:50:25;9.10;;;2.50;;
33347;SDS011;19707;51.158;17.124;2023-04-03T09:56:30;3.40;;;2.40;;
33347;SDS011;19707;51.158;17.124;2023-04-03T09:59:33;8.40;;;2.80;;
33347;SDS011;19707;51.158;17.124;2023-04-03T10:02:36;5.80;;;2.70;;
33347;SDS011;19707;51.158;17.124;2023-04-03T10:05:41;5.10;;;2.20;;
33347;SDS011;19707;51.158;17.124;2023-04-03T10:08:43;4.70;;;1.90;;
33347;SDS011;19707;51.158;17.124;2023-04-03T10:15:11;11.10;;;4.10;;
33347;SDS011;19707;51.158;17.124;2023-04-03T10:18:27;9.80;;;5.50;;
33347;SDS011;19707;51.158;17.124;2023-04-03T10:21:45;6.30;;;2.60;;
33347;SDS011;19707;51.158;17.124;2023-04-03T10:31:59;4.70;;;2.30;;
33347;SDS011;19707;51.158;17.124;2023-04-03T10:35:12;9.40;;;1.90;;
33347;SDS011;19707;51.158;17.124;2023-04-03T10:45:26;17.20;;;7.90;;
33347;SDS011;19707;51.158;17.124;2023-04-03T10:48:43;6.80;;;3.30;;
33347;SDS011;19707;51.158;17.124;2023-04-03T10:51:54;7.50;;;3.20;;
33347;SDS011;19707;51.158;17.124;2023-04-03T10:58:19;6.50;;;2.80;;
33347;SDS011;19707;51.158;17.124;2023-04-03T11:01:33;7.80;;;2.40;;
33347;SDS011;19707;51.158;17.124;2023-04-03T11:04:37;6.50;;;2.70;;
33347;SDS011;19707;51.158;17.124;2023-04-03T11:10:50;5.90;;;2.20;;
33347;SDS011;19707;51.158;17.124;2023-04-03T11:14:18;8.00;;;3.60;;
33347;SDS011;19707;51.158;17.124;2023-04-03T11:21:11;7.40;;;2.90;;
33347;SDS011;19707;51.158;17.124;2023-04-03T13:10:47;6.20;;;3.50;;
33347;SDS011;19707;51.158;17.124;2023-04-03T14:11:43;3.40;;;2.60;;
33347;SDS011;19707;51.158;17.124;2023-04-03T14:18:59;4.70;;;2.70;;
33347;SDS011;19707;51.158;17.124;2023-04-03T14:25:55;3.90;;;2.40;;
33347;SDS011;19707;51.158;17.124;2023-04-03T14:33:17;3.80;;;2.50;;
33347;SDS011;19707;51.158;17.124;2023-04-03T14:36:25;8.90;;;3.00;;
33347;SDS011;19707;51.158;17.124;2023-04-03T14:39:56;6.70;;;2.80;;
33347;SDS011;19707;51.158;17.124;2023-04-03T14:46:33;4.00;;;2.50;;
33347;SDS011;19707;51.158;17.124;2023-04-03T14:50:01;9.70;;;2.90;;
33347;SDS011;19707;51.158;17.124;2023-04-03T14:53:25;7.20;;;3.70;;
33347;SDS011;19707;51.158;17.124;2023-04-03T14:56:53;6.70;;;3.50;;
33347;SDS011;19707;51.158;17.124;2023-04-03T15:00:25;6.30;;;2.70;;
33347;SDS011;19707;51.158;17.124;2023-04-03T15:03:37;6.60;;;3.30;;
33347;SDS011;19707;51.158;17.124;2023-04-03T15:07:01;4.80;;;2.20;;
33347;SDS011;19707;51.158;17.124;2023-04-03T15:10:20;6.80;;;3.20;;
33347;SDS011;19707;51.158;17.124;2023-04-03T15:13:33;11.10;;;3.50;;
33347;SDS011;19707;51.158;17.124;2023-04-03T15:16:47;10.00;;;3.70;;
33347;SDS011;19707;51.158;17.124;2023-04-03T15:27:06;8.00;;;3.40;;
33347;SDS011;19707;51.158;17.124;2023-04-03T15:30:40;4.80;;;2.70;;
33347;SDS011;19707;51.158;17.124;2023-04-03T15:33:52;8.50;;;3.20;;
33347;SDS011;19707;51.158;17.124;2023-04-03T15:37:20;8.60;;;4.10;;
33347;SDS011;19707;51.158;17.124;2023-04-03T15:44:16;7.90;;;3.80;;
33347;SDS011;19707;51.158;17.124;2023-04-03T16:28:36;9.30;;;4.60;;
33347;SDS011;19707;51.158;17.124;2023-04-03T16:36:06;7.10;;;3.80;;
33347;SDS011;19707;51.158;17.124;2023-04-03T16:51:26;13.00;;;5.20;;
33347;SDS011;19707;51.158;17.124;2023-04-03T16:55:13;9.20;;;4.00;;
33347;SDS011;19707;51.158;17.124;2023-04-03T17:27:16;10.00;;;6.10;;
33347;SDS011;19707;51.158;17.124;2023-04-03T17:33:57;9.80;;;5.30;;
33347;SDS011;19707;51.158;17.124;2023-04-03T17:37:11;7.40;;;4.10;;
33347;SDS011;19707;51.158;17.124;2023-04-03T17:40:28;10.40;;;4.60;;
33347;SDS011;19707;51.158;17.124;2023-04-03T17:43:43;8.20;;;4.00;;
33347;SDS011;19707;51.158;17.124;2023-04-03T17:50:17;7.90;;;5.60;;
33347;SDS011;19707;51.158;17.124;2023-04-03T17:53:22;10.60;;;6.70;;
33347;SDS011;19707;51.158;17.124;2023-04-03T17:57:04;7.40;;;4.80;;
33347;SDS011;19707;51.158;17.124;2023-04-03T18:00:06;6.50;;;4.10;;
33347;SDS011;19707;51.158;17.124;2023-04-03T18:06:46;8.70;;;4.40;;
33347;SDS011;19707;51.158;17.124;2023-04-03T18:09:56;7.70;;;4.10;;
33347;SDS011;19707;51.158;17.124;2023-04-03T18:13:31;12.20;;;5.30;;
33347;SDS011;19707;51.158;17.124;2023-04-03T18:17:06;13.20;;;7.00;;
33347;SDS011;19707;51.158;17.124;2023-04-03T18:33:04;10.10;;;5.20;;
33347;SDS011;19707;51.158;17.124;2023-04-03T18:44:55;12.90;;;6.30;;
33347;SDS011;19707;51.158;17.124;2023-04-03T19:15:44;11.50;;;6.90;;
33347;SDS011;19707;51.158;17.124;2023-04-03T19:27:27;10.30;;;5.00;;
33347;SDS011;19707;51.158;17.124;2023-04-03T19:42:36;11.50;;;5.00;;
